Time;durP1;ratioP1;P1;durP2;ratioP2;P2;SDS_P1;SDS_P2;PMS_P1;PMS_P2;Temp;Humidity;BMP_temperature;BMP_pressure;BME280_temperature;BME280_humidity;BME280_pressure;Samples;Min_cycle;Max_cycle;Signal;HPM_P1;HPM_P2
2022/07/29 00:02:38;;;;;;;;;;;;;;;14.45;61.70;96746.34;6221261;28;19926;-65
2022/07/29 00:05:45;;;;;;;;;;;;;;;14.42;61.35;96745.75;6221488;28;20027;-66
2022/07/29 00:08:48;;;;;;;;;;;;;;;14.43;61.35;96739.50;6221907;28;19988;-66
2022/07/29 00:11:53;;;;;;;;;;;;;;;14.50;61.97;96735.38;6221874;28;19932;-65
2022/07/29 00:14:59;;;;;;;;;;;;;;;14.47;61.98;96735.63;6222049;28;19929;-65
2022/07/29 00:18:06;;;;;;;;;;;;;;;14.41;62.53;96736.13;6222094;28;19925;-66
2022/07/29 00:21:09;;;;;;;;;;;;;;;14.42;62.73;96737.81;6221464;28;19925;-65
2022/07/29 00:24:15;;;;;;;;;;;;;;;14.44;63.14;96738.53;6221089;28;19925;-65
2022/07/29 00:27:19;;;;;;;;;;;;;;;14.36;63.02;96737.34;6221862;28;19933;-65
2022/07/29 00:30:23;;;;;;;;;;;;;;;14.31;62.63;96742.19;6221913;28;20395;-66
2022/07/29 00:33:24;;;;;;;;;;;;;;;14.33;62.91;96745.53;6221205;28;20015;-66
2022/07/29 00:36:28;;;;;;;;;;;;;;;14.35;62.60;96735.69;6221595;28;19926;-65
2022/07/29 00:39:32;;;;;;;;;;;;;;;14.44;63.00;96747.31;6221609;28;19921;-66
2022/07/29 00:42:49;;;;;;;;;;;;;;;14.44;62.83;96743.84;6221336;28;19932;-65
2022/07/29 00:45:52;;;;;;;;;;;;;;;14.45;63.06;96743.69;6221352;28;20019;-66
2022/07/29 00:48:55;;;;;;;;;;;;;;;14.46;62.94;96744.53;6221432;28;20411;-66
2022/07/29 00:51:57;;;;;;;;;;;;;;;14.56;62.97;96742.84;6221025;28;20314;-66
2022/07/29 00:55:03;;;;;;;;;;;;;;;14.68;63.05;96749.75;6221439;28;19930;-66
2022/07/29 00:58:04;;;;;;;;;;;;;;;14.69;62.58;96746.16;6221147;28;19932;-66
2022/07/29 01:01:05;;;;;;;;;;;;;;;14.73;62.89;96742.28;6221348;28;20430;-66
2022/07/29 01:04:09;;;;;;;;;;;;;;;14.81;62.66;96745.13;6221367;28;19926;-65
2022/07/29 01:07:17;;;;;;;;;;;;;;;14.79;62.43;96744.41;6221396;28;19925;-66
2022/07/29 01:10:19;;;;;;;;;;;;;;;14.88;62.32;96752.53;6221068;28;20457;-66
2022/07/29 01:13:23;;;;;;;;;;;;;;;14.96;62.09;96750.09;6220956;28;19929;-67
2022/07/29 01:16:32;;;;;;;;;;;;;;;15.05;62.09;96757.25;6221292;28;19925;-65
2022/07/29 01:19:56;;;;;;;;;;;;;;;15.14;61.91;96751.16;6221261;28;19937;-65
2022/07/29 01:23:15;;;;;;;;;;;;;;;15.19;61.56;96759.56;6221332;28;19925;-65
2022/07/29 01:26:25;;;;;;;;;;;;;;;15.36;61.53;96754.66;6220879;28;19922;-65
2022/07/29 01:29:32;;;;;;;;;;;;;;;15.44;61.17;96752.19;6221174;28;20522;-65
2022/07/29 01:32:39;;;;;;;;;;;;;;;15.61;60.76;96751.53;6221066;28;19948;-65
2022/07/29 01:35:43;;;;;;;;;;;;;;;15.84;60.24;96748.72;6224341;28;19932;-65
2022/07/29 01:38:53;;;;;;;;;;;;;;;15.89;59.85;96752.66;6225578;28;19925;-65
2022/07/29 01:42:09;;;;;;;;;;;;;;;15.95;59.77;96756.56;6225459;28;19929;-66
2022/07/29 01:45:39;;;;;;;;;;;;;;;16.02;59.77;96755.06;6225544;28;20028;-65
2022/07/29 01:48:45;;;;;;;;;;;;;;;16.08;59.43;96751.88;6209406;28;19929;-65
2022/07/29 01:52:03;;;;;;;;;;;;;;;16.13;59.37;96746.97;6224985;28;20300;-65
2022/07/29 01:55:07;;;;;;;;;;;;;;;16.19;59.28;96752.72;6225191;28;19932;-65
2022/07/29 01:58:10;;;;;;;;;;;;;;;16.20;59.18;96755.25;6224615;28;20299;-66
2022/07/29 02:01:14;;;;;;;;;;;;;;;16.33;59.25;96761.13;6225011;28;19925;-66
2022/07/29 02:04:17;;;;;;;;;;;;;;;16.40;58.75;96756.09;6224778;28;19925;-65
2022/07/29 02:07:21;;;;;;;;;;;;;;;16.49;58.62;96755.25;6224815;28;20399;-65
2022/07/29 02:10:29;;;;;;;;;;;;;;;16.60;58.28;96760.44;6224590;28;19925;-65
2022/07/29 02:13:35;;;;;;;;;;;;;;;16.71;58.00;96755.97;6224748;28;19948;-66
2022/07/29 02:16:37;;;;;;;;;;;;;;;16.79;57.96;96751.66;6224529;28;19925;-66
2022/07/29 02:19:40;;;;;;;;;;;;;;;16.89;57.56;96756.97;6224500;28;19929;-66
2022/07/29 02:22:44;;;;;;;;;;;;;;;16.93;57.58;96753.06;6224297;28;19925;-66
2022/07/29 02:25:48;;;;;;;;;;;;;;;16.91;57.57;96755.00;6224423;28;20302;-66
2022/07/29 02:28:51;;;;;;;;;;;;;;;16.94;57.49;96746.75;6224241;28;19925;-66
2022/07/29 02:31:53;;;;;;;;;;;;;;;16.99;57.41;96752.47;6223946;28;20067;-65
2022/07/29 02:34:55;;;;;;;;;;;;;;;16.96;57.12;96758.09;6223652;28;19925;-65
2022/07/29 02:41:39;;;;;;;;;;;;;;;17.00;57.34;96743.50;6223950;28;19925;-65
2022/07/29 02:44:43;;;;;;;;;;;;;;;17.05;57.04;96751.06;6223313;28;19937;-65
2022/07/29 02:47:48;;;;;;;;;;;;;;;17.03;56.93;96742.41;6223184;28;19925;-66
2022/07/29 02:50:58;;;;;;;;;;;;;;;17.12;56.93;96746.00;6223811;28;19975;-65
2022/07/29 02:54:06;;;;;;;;;;;;;;;17.11;56.74;96741.69;6223320;28;19925;-65
2022/07/29 02:57:21;;;;;;;;;;;;;;;17.18;56.54;96742.78;6223126;28;19926;-65
2022/07/29 03:00:27;;;;;;;;;;;;;;;17.34;56.21;96743.03;6223367;28;19933;-65
2022/07/29 03:03:34;;;;;;;;;;;;;;;17.47;56.18;96740.88;6223496;28;19929;-66
2022/07/29 03:06:38;;;;;;;;;;;;;;;17.61;55.44;96736.09;6223401;28;19925;-66
2022/07/29 03:09:41;;;;;;;;;;;;;;;17.82;55.19;96742.03;6222910;28;20380;-65
2022/07/29 03:12:43;;;;;;;;;;;;;;;17.86;54.75;96743.41;6223427;28;20338;-66
2022/07/29 03:15:44;;;;;;;;;;;;;;;17.97;54.97;96754.84;6222558;28;20311;-65
2022/07/29 03:18:50;;;;;;;;;;;;;;;18.08;54.38;96747.47;6223152;28;20428;-65
2022/07/29 03:21:52;;;;;;;;;;;;;;;18.16;54.28;96757.38;6223023;28;20099;-65
2022/07/29 03:24:53;;;;;;;;;;;;;;;18.22;54.35;96754.13;6222653;28;19932;-66
2022/07/29 03:27:56;;;;;;;;;;;;;;;18.30;54.17;96756.03;6222562;28;19925;-66
2022/07/29 03:30:57;;;;;;;;;;;;;;;18.25;53.97;96756.47;6222108;28;19925;-66
2022/07/29 03:34:00;;;;;;;;;;;;;;;18.11;54.38;96764.97;6222275;28;20007;-66
2022/07/29 03:37:05;;;;;;;;;;;;;;;18.03;54.32;96756.91;6222570;28;19925;-65
2022/07/29 03:40:08;;;;;;;;;;;;;;;17.94;54.67;96753.31;6222083;28;19925;-65
2022/07/29 03:43:13;;;;;;;;;;;;;;;17.84;54.85;96753.38;6221847;28;19925;-65
2022/07/29 03:46:16;;;;;;;;;;;;;;;17.67;55.22;96756.78;6204873;28;19940;-65
2022/07/29 03:49:19;;;;;;;;;;;;;;;17.34;56.82;96760.81;6222066;28;19981;-65
2022/07/29 03:52:23;;;;;;;;;;;;;;;17.00;58.11;96759.47;6222452;28;19925;-65
2022/07/29 03:55:28;;;;;;;;;;;;;;;16.74;59.51;96768.97;6222400;28;19929;-66
2022/07/29 03:58:31;;;;;;;;;;;;;;;16.41;60.68;96763.09;6221993;28;19922;-65
2022/07/29 04:01:33;;;;;;;;;;;;;;;16.30;61.26;96761.38;6222395;28;19932;-65
2022/07/29 04:04:35;;;;;;;;;;;;;;;16.23;61.74;96764.75;6222229;28;20616;-66
2022/07/29 04:07:36;;;;;;;;;;;;;;;16.19;62.47;96769.47;6221908;28;20388;-65
2022/07/29 04:10:39;;;;;;;;;;;;;;;16.17;62.63;96777.59;6222011;28;20299;-65
2022/07/29 04:13:44;;;;;;;;;;;;;;;16.24;62.93;96771.72;6222226;28;20015;-66
2022/07/29 04:17:02;;;;;;;;;;;;;;;16.29;62.92;96774.81;6222223;28;20035;-66
2022/07/29 04:20:03;;;;;;;;;;;;;;;16.26;63.20;96769.78;6222101;28;19921;-66
2022/07/29 04:23:10;;;;;;;;;;;;;;;16.23;63.11;96780.69;6221899;28;19926;-64
2022/07/29 04:26:11;;;;;;;;;;;;;;;16.40;63.48;96772.03;6221583;28;19932;-66
2022/07/29 04:29:16;;;;;;;;;;;;;;;16.55;64.38;96769.81;6221691;28;20427;-65
2022/07/29 04:32:18;;;;;;;;;;;;;;;16.49;64.34;96765.88;6221003;28;19932;-65
2022/07/29 04:35:23;;;;;;;;;;;;;;;16.53;64.48;96761.13;6221658;28;20314;-65
2022/07/29 04:38:24;;;;;;;;;;;;;;;16.76;64.28;96764.38;6221508;28;20318;-65
2022/07/29 04:41:25;;;;;;;;;;;;;;;16.95;63.82;96761.72;6221396;28;19925;-66
2022/07/29 04:44:30;;;;;;;;;;;;;;;17.17;63.84;96771.19;6221677;28;19925;-66
2022/07/29 04:47:31;;;;;;;;;;;;;;;17.26;64.10;96764.16;6221582;28;19926;-66
2022/07/29 04:50:39;;;;;;;;;;;;;;;17.28;63.94;96767.53;6221434;28;19931;-65
2022/07/29 04:53:43;;;;;;;;;;;;;;;17.25;64.27;96767.81;6221605;28;20015;-65
2022/07/29 04:56:49;;;;;;;;;;;;;;;17.25;64.27;96762.50;6221558;28;20359;-65
2022/07/29 04:59:54;;;;;;;;;;;;;;;17.26;64.46;96764.16;6221155;28;19925;-65
2022/07/29 05:02:59;;;;;;;;;;;;;;;17.26;64.32;96754.38;6221504;28;19925;-66
2022/07/29 05:06:03;;;;;;;;;;;;;;;17.34;64.45;96752.81;6221445;28;19937;-65
2022/07/29 05:09:04;;;;;;;;;;;;;;;17.39;64.41;96758.56;6222028;28;20311;-66
2022/07/29 05:12:07;;;;;;;;;;;;;;;17.46;64.11;96755.16;6225813;28;19925;-66
2022/07/29 05:15:09;;;;;;;;;;;;;;;17.58;64.25;96752.31;6225829;28;19968;-65
2022/07/29 05:18:15;;;;;;;;;;;;;;;17.67;63.88;96762.09;6225741;28;19979;-65
2022/07/29 05:21:16;;;;;;;;;;;;;;;17.72;63.76;96750.03;6225672;28;20069;-66
2022/07/29 05:24:19;;;;;;;;;;;;;;;17.61;64.05;96762.69;6226039;28;19925;-66
2022/07/29 05:27:28;;;;;;;;;;;;;;;17.50;64.44;96761.88;6225350;28;19932;-65
2022/07/29 05:30:31;;;;;;;;;;;;;;;17.38;64.75;96765.69;6225198;28;20391;-65
2022/07/29 05:33:34;;;;;;;;;;;;;;;17.34;65.17;96761.63;6225197;28;19972;-65
2022/07/29 05:36:35;;;;;;;;;;;;;;;17.37;65.14;96758.69;6225248;28;20319;-66
2022/07/29 05:39:36;;;;;;;;;;;;;;;17.40;65.24;96755.72;6224873;28;19926;-66
2022/07/29 05:42:39;;;;;;;;;;;;;;;17.39;64.92;96759.38;6225277;28;19926;-65
2022/07/29 05:45:40;;;;;;;;;;;;;;;17.41;65.03;96757.44;6224825;28;19932;-65
2022/07/29 05:48:46;;;;;;;;;;;;;;;17.44;65.47;96767.78;6225041;28;19925;-65
2022/07/29 05:51:49;;;;;;;;;;;;;;;17.32;65.72;96763.59;6224579;28;20310;-65
2022/07/29 05:54:52;;;;;;;;;;;;;;;17.26;65.76;96772.16;6224487;28;19925;-65
2022/07/29 05:57:55;;;;;;;;;;;;;;;17.22;65.75;96768.13;6224446;28;19926;-66
2022/07/29 06:01:00;;;;;;;;;;;;;;;17.25;66.01;96778.47;6224450;28;19932;-67
2022/07/29 06:04:02;;;;;;;;;;;;;;;17.04;66.76;96771.50;6223821;28;19932;-65
2022/07/29 06:07:05;;;;;;;;;;;;;;;16.74;67.57;96775.13;6225020;28;19979;-65
2022/07/29 06:10:06;;;;;;;;;;;;;;;16.51;68.33;96766.59;6224022;28;19925;-66
2022/07/29 06:13:11;;;;;;;;;;;;;;;16.46;69.02;96765.34;6224326;28;20020;-66
2022/07/29 06:16:12;;;;;;;;;;;;;;;16.54;69.11;96768.13;6224250;28;19929;-66
2022/07/29 06:19:17;;;;;;;;;;;;;;;16.58;69.32;96766.88;6224459;28;19926;-66
2022/07/29 06:22:21;;;;;;;;;;;;;;;16.63;69.38;96771.78;6222809;28;20299;-67
2022/07/29 06:25:24;;;;;;;;;;;;;;;16.65;69.53;96785.75;6223629;28;20447;-65
2022/07/29 06:28:26;;;;;;;;;;;;;;;16.67;69.73;96783.78;6223862;28;19932;-65
2022/07/29 06:31:29;;;;;;;;;;;;;;;16.59;69.89;96777.38;6224356;28;20455;-65
2022/07/29 06:34:33;;;;;;;;;;;;;;;16.68;70.62;96782.81;6223100;28;19925;-66
2022/07/29 06:37:39;;;;;;;;;;;;;;;16.61;70.95;96780.69;6223916;28;20015;-65
2022/07/29 06:44:04;;;;;;;;;;;;;;;16.45;71.53;96783.09;6223494;28;19948;-66
2022/07/29 06:47:09;;;;;;;;;;;;;;;16.52;71.77;96773.56;6223562;28;19925;-65
2022/07/29 06:50:12;;;;;;;;;;;;;;;16.46;71.80;96779.44;6223715;28;19944;-66
2022/07/29 06:53:15;;;;;;;;;;;;;;;16.53;71.72;96782.38;6223495;28;19961;-66
2022/07/29 06:56:19;;;;;;;;;;;;;;;16.67;71.75;96783.78;6223593;28;19925;-66
2022/07/29 06:59:20;;;;;;;;;;;;;;;16.74;71.89;96790.22;6221713;28;19961;-67
2022/07/29 07:02:24;;;;;;;;;;;;;;;16.95;71.77;96777.66;6223277;28;20321;-66
2022/07/29 07:05:28;;;;;;;;;;;;;;;17.20;70.90;96783.38;6223248;28;19933;-66
2022/07/29 07:08:32;;;;;;;;;;;;;;;17.41;70.33;96783.16;6222914;28;19925;-67
2022/07/29 07:11:37;;;;;;;;;;;;;;;17.44;69.87;96786.41;6222774;28;19929;-66
2022/07/29 07:14:44;;;;;;;;;;;;;;;17.47;69.73;96785.28;6222981;28;19951;-65
2022/07/29 07:17:48;;;;;;;;;;;;;;;17.54;69.86;96788.19;6222806;28;19925;-65
2022/07/29 07:20:53;;;;;;;;;;;;;;;17.73;69.10;96794.28;6222681;28;19933;-65
2022/07/29 07:23:54;;;;;;;;;;;;;;;17.95;68.77;96793.09;6222802;28;19925;-65
2022/07/29 07:26:57;;;;;;;;;;;;;;;18.14;68.29;96791.31;6222746;28;20329;-66
2022/07/29 07:29:58;;;;;;;;;;;;;;;18.46;67.80;96790.84;6222220;28;19948;-66
2022/07/29 07:33:03;;;;;;;;;;;;;;;18.68;66.47;96789.56;6222384;28;19929;-65
2022/07/29 07:36:04;;;;;;;;;;;;;;;18.72;66.71;96796.28;6222637;28;19980;-67
2022/07/29 07:39:05;;;;;;;;;;;;;;;18.92;66.05;96796.97;6221928;28;19921;-66
2022/07/29 07:42:06;;;;;;;;;;;;;;;18.92;65.94;96796.16;6221879;28;19925;-66
2022/07/29 07:45:09;;;;;;;;;;;;;;;19.07;65.44;96797.25;6222518;28;20461;-66
2022/07/29 07:48:10;;;;;;;;;;;;;;;19.26;65.03;96798.91;6222146;28;19933;-67
2022/07/29 07:51:14;;;;;;;;;;;;;;;19.46;64.31;96794.22;6222344;28;19929;-67
2022/07/29 07:54:17;;;;;;;;;;;;;;;19.60;63.75;96798.97;6222147;28;19925;-66
2022/07/29 07:57:20;;;;;;;;;;;;;;;19.68;63.43;96793.72;6222265;28;19929;-66
2022/07/29 08:00:26;;;;;;;;;;;;;;;19.90;62.85;96794.16;6222359;28;20395;-66
2022/07/29 08:03:28;;;;;;;;;;;;;;;19.98;62.04;96799.53;6221732;28;20323;-67
2022/07/29 08:06:30;;;;;;;;;;;;;;;19.94;62.56;96795.53;6221728;28;19925;-68
2022/07/29 08:09:34;;;;;;;;;;;;;;;20.39;61.51;96791.69;6221112;28;20315;-67
2022/07/29 08:12:35;;;;;;;;;;;;;;;20.93;60.26;96784.13;6220246;28;19926;-66
2022/07/29 08:15:39;;;;;;;;;;;;;;;21.51;59.02;96788.50;6221854;28;19932;-66
2022/07/29 08:18:41;;;;;;;;;;;;;;;22.07;57.43;96787.66;6221660;28;19932;-66
2022/07/29 08:21:42;;;;;;;;;;;;;;;22.34;56.10;96791.75;6221803;28;19925;-66
2022/07/29 08:24:44;;;;;;;;;;;;;;;22.33;56.14;96788.22;6221749;28;19948;-66
2022/07/29 08:27:50;;;;;;;;;;;;;;;22.63;55.50;96783.03;6221625;28;19925;-66
2022/07/29 08:30:54;;;;;;;;;;;;;;;23.14;54.00;96788.75;6221542;28;20307;-67
2022/07/29 08:33:59;;;;;;;;;;;;;;;23.54;53.56;96792.06;6221773;28;20395;-66
2022/07/29 08:37:00;;;;;;;;;;;;;;;24.13;52.09;96786.75;6220304;28;20303;-67
2022/07/29 08:40:02;;;;;;;;;;;;;;;24.19;50.39;96791.38;6221170;28;19948;-66
2022/07/29 08:43:09;;;;;;;;;;;;;;;24.15;51.25;96783.88;6220983;28;20323;-67
2022/07/29 08:46:12;;;;;;;;;;;;;;;24.65;50.43;96796.50;6220925;28;19932;-65
2022/07/29 08:49:13;;;;;;;;;;;;;;;25.90;48.02;96797.91;6221071;28;20328;-66
2022/07/29 08:52:16;;;;;;;;;;;;;;;27.31;45.88;96795.50;6220810;28;19925;-66
2022/07/29 08:55:18;;;;;;;;;;;;;;;28.92;42.11;96804.09;6220812;28;20304;-65
2022/07/29 08:58:22;;;;;;;;;;;;;;;31.39;39.01;96803.28;6221009;28;19929;-66
2022/07/29 09:01:24;;;;;;;;;;;;;;;33.54;35.86;96809.53;6221528;28;19933;-67
2022/07/29 09:04:30;;;;;;;;;;;;;;;35.87;32.26;96807.50;6220685;28;20050;-65
2022/07/29 09:07:32;;;;;;;;;;;;;;;37.09;28.71;96810.09;6220300;28;20405;-68
2022/07/29 09:10:36;;;;;;;;;;;;;;;37.67;28.88;96810.72;6221044;28;20012;-66
2022/07/29 09:13:42;;;;;;;;;;;;;;;38.31;28.04;96817.56;6220667;28;19925;-65
2022/07/29 09:16:50;;;;;;;;;;;;;;;36.93;29.46;96803.72;6220875;28;19925;-66
2022/07/29 09:20:07;;;;;;;;;;;;;;;35.88;29.70;96800.94;6220567;28;19964;-66
2022/07/29 09:23:13;;;;;;;;;;;;;;;35.16;29.88;96789.38;6220836;28;20070;-66
2022/07/29 09:26:14;;;;;;;;;;;;;;;34.05;30.42;96795.06;6220857;28;20044;-65
2022/07/29 09:29:17;;;;;;;;;;;;;;;32.53;32.17;96787.44;6220411;28;19925;-66
2022/07/29 09:32:27;;;;;;;;;;;;;;;31.47;34.00;96781.19;6221037;28;20399;-66
2022/07/29 09:35:31;;;;;;;;;;;;;;;31.18;33.60;96774.72;6220939;28;19947;-67
2022/07/29 09:38:41;;;;;;;;;;;;;;;31.18;33.99;96780.97;6220582;28;19936;-67
2022/07/29 09:41:44;;;;;;;;;;;;;;;30.96;33.83;96769.81;6220790;28;20307;-66
2022/07/29 09:44:50;;;;;;;;;;;;;;;30.77;33.97;96774.44;6220982;28;19972;-66
2022/07/29 09:48:00;;;;;;;;;;;;;;;30.82;33.64;96771.88;6220533;28;19925;-66
2022/07/29 09:51:05;;;;;;;;;;;;;;;30.43;34.49;96776.78;6220631;28;19925;-67
2022/07/29 09:54:36;;;;;;;;;;;;;;;30.70;34.33;96768.28;6220591;28;20426;-66
2022/07/29 09:57:37;;;;;;;;;;;;;;;31.06;33.98;96771.97;6224477;28;20307;-66
2022/07/29 10:00:42;;;;;;;;;;;;;;;31.06;33.50;96761.13;6222991;28;19921;-66
2022/07/29 10:03:52;;;;;;;;;;;;;;;32.25;32.00;96762.88;6224316;28;19925;-66
2022/07/29 10:06:57;;;;;;;;;;;;;;;33.71;29.84;96781.44;6224223;28;19928;-65
2022/07/29 10:09:58;;;;;;;;;;;;;;;34.06;29.50;96772.16;6224640;28;19925;-65
2022/07/29 10:13:06;;;;;;;;;;;;;;;34.02;29.88;96776.44;6224762;28;20385;-66
2022/07/29 10:16:09;;;;;;;;;;;;;;;34.28;29.51;96781.19;6223961;28;19926;-66
2022/07/29 10:19:13;;;;;;;;;;;;;;;34.06;29.71;96772.16;6224565;28;19997;-65
2022/07/29 10:22:17;;;;;;;;;;;;;;;33.82;30.56;96766.84;6223910;28;19925;-65
2022/07/29 10:25:18;;;;;;;;;;;;;;;33.70;30.10;96768.88;6224209;28;20012;-66
2022/07/29 10:28:19;;;;;;;;;;;;;;;33.28;29.93;96761.06;6223965;28;20422;-65
2022/07/29 10:31:28;;;;;;;;;;;;;;;34.24;28.92;96769.13;6224194;28;19932;-66
2022/07/29 10:34:50;;;;;;;;;;;;;;;35.01;27.63;96770.03;6224062;28;19925;-66
2022/07/29 10:37:52;;;;;;;;;;;;;;;34.95;27.31;96760.13;6223694;28;19926;-65
2022/07/29 10:41:29;;;;;;;;;;;;;;;34.78;27.47;96763.78;6222134;28;19925;-65
2022/07/29 10:44:30;;;;;;;;;;;;;;;34.28;28.31;96764.78;6220722;28;19925;-65
2022/07/29 10:47:33;;;;;;;;;;;;;;;33.63;29.10;96762.75;6223876;28;20024;-64
2022/07/29 10:50:56;;;;;;;;;;;;;;;32.85;30.04;96757.00;6223422;28;19925;-66
2022/07/29 10:54:04;;;;;;;;;;;;;;;32.08;30.47;96746.44;6223327;28;19925;-65
2022/07/29 10:57:20;;;;;;;;;;;;;;;31.57;31.18;96751.53;6223232;28;19940;-66
2022/07/29 11:00:28;;;;;;;;;;;;;;;30.78;32.11;96748.94;6223472;28;19925;-66
2022/07/29 11:03:49;;;;;;;;;;;;;;;30.19;32.87;96732.34;6223371;28;19925;-66
2022/07/29 11:07:06;;;;;;;;;;;;;;;29.58;33.44;96733.16;6222637;28;19930;-66
2022/07/29 11:10:14;;;;;;;;;;;;;;;29.58;33.53;96733.16;6222666;28;20295;-65
2022/07/29 11:13:36;;;;;;;;;;;;;;;30.02;32.86;96727.75;6221653;28;20395;-65
2022/07/29 11:16:55;;;;;;;;;;;;;;;29.98;32.34;96728.22;6222615;28;20311;-65
2022/07/29 11:20:15;;;;;;;;;;;;;;;29.48;32.99;96720.13;6222825;28;19925;-66
2022/07/29 11:23:19;;;;;;;;;;;;;;;29.67;33.33;96720.22;6222598;28;19929;-65
2022/07/29 11:26:27;;;;;;;;;;;;;;;31.51;30.87;96719.84;6221987;28;20355;-66
2022/07/29 11:29:35;;;;;;;;;;;;;;;32.81;28.74;96714.94;6222507;28;20020;-65
2022/07/29 11:32:43;;;;;;;;;;;;;;;32.58;28.87;96707.72;6222767;28;19930;-66
2022/07/29 11:36:04;;;;;;;;;;;;;;;32.32;28.60;96714.53;6220407;28;20319;-66
2022/07/29 11:39:25;;;;;;;;;;;;;;;32.96;27.82;96709.78;6222346;28;19926;-65
2022/07/29 11:42:26;;;;;;;;;;;;;;;33.57;26.65;96709.19;6221669;28;19937;-65
2022/07/29 11:45:45;;;;;;;;;;;;;;;33.79;26.77;96712.78;6221528;28;19934;-66
2022/07/29 11:48:51;;;;;;;;;;;;;;;32.96;27.64;96715.25;6222194;28;20005;-65
2022/07/29 11:52:00;;;;;;;;;;;;;;;32.86;27.70;96715.03;6221953;28;19925;-66
2022/07/29 11:55:06;;;;;;;;;;;;;;;33.28;27.46;96715.53;6221906;28;19926;-65
2022/07/29 11:58:11;;;;;;;;;;;;;;;33.58;26.96;96711.66;6221747;28;19968;-66
2022/07/29 12:01:16;;;;;;;;;;;;;;;33.87;27.04;96717.81;6222113;28;20015;-66
2022/07/29 12:04:20;;;;;;;;;;;;;;;34.04;26.61;96706.88;6221874;28;19932;-66
2022/07/29 12:07:27;;;;;;;;;;;;;;;34.20;26.49;96713.38;6221863;28;20019;-65
2022/07/29 12:10:32;;;;;;;;;;;;;;;34.43;26.21;96702.16;6221264;28;19929;-65
2022/07/29 12:13:38;;;;;;;;;;;;;;;34.47;25.93;96697.00;6221680;28;19926;-65
2022/07/29 12:16:39;;;;;;;;;;;;;;;34.41;26.19;96698.84;6221259;28;19925;-65
2022/07/29 12:19:43;;;;;;;;;;;;;;;34.05;26.18;96704.97;6219590;28;19921;-65
2022/07/29 12:22:44;;;;;;;;;;;;;;;33.54;26.67;96699.59;6221252;28;19925;-66
2022/07/29 12:25:50;;;;;;;;;;;;;;;33.24;26.84;96706.19;6221616;28;20299;-66
2022/07/29 12:28:56;;;;;;;;;;;;;;;33.20;27.03;96704.22;6221464;28;19925;-64
2022/07/29 12:31:59;;;;;;;;;;;;;;;32.99;27.15;96698.41;6221012;28;19933;-65
2022/07/29 12:35:08;;;;;;;;;;;;;;;32.26;28.07;96693.72;6221283;28;19926;-66
2022/07/29 12:38:13;;;;;;;;;;;;;;;32.03;28.59;96687.28;6221566;28;19925;-65
2022/07/29 12:41:16;;;;;;;;;;;;;;;32.31;28.05;96693.84;6220780;28;19926;-66
2022/07/29 12:44:19;;;;;;;;;;;;;;;32.40;28.03;96693.19;6221395;28;20396;-66
2022/07/29 12:47:21;;;;;;;;;;;;;;;32.39;28.25;96693.44;6221348;28;20395;-66
2022/07/29 12:50:23;;;;;;;;;;;;;;;32.36;27.90;96694.75;6221550;28;19932;-65
2022/07/29 12:53:30;;;;;;;;;;;;;;;31.91;27.93;96686.50;6221317;28;20387;-66
2022/07/29 12:56:33;;;;;;;;;;;;;;;31.51;29.04;96684.50;6221171;28;19948;-66
2022/07/29 12:59:39;;;;;;;;;;;;;;;30.90;29.42;96691.13;6221251;28;19921;-65
2022/07/29 13:02:43;;;;;;;;;;;;;;;30.36;30.41;96691.84;6221148;28;19925;-66
2022/07/29 13:05:50;;;;;;;;;;;;;;;29.83;31.04;96697.91;6221268;28;19921;-65
2022/07/29 13:09:04;;;;;;;;;;;;;;;29.48;31.57;96694.91;6221219;28;19926;-65
2022/07/29 13:12:10;;;;;;;;;;;;;;;29.34;31.66;96691.50;6221265;28;19925;-66
2022/07/29 13:15:12;;;;;;;;;;;;;;;29.15;32.21;96690.59;6220618;28;20379;-66
2022/07/29 13:18:27;;;;;;;;;;;;;;;28.89;32.55;96697.03;6220956;28;19925;-66
2022/07/29 13:21:31;;;;;;;;;;;;;;;28.87;32.49;96694.56;6220833;28;19921;-66
2022/07/29 13:24:44;;;;;;;;;;;;;;;28.55;32.81;96685.59;6220929;28;20022;-66
2022/07/29 13:27:46;;;;;;;;;;;;;;;27.96;33.73;96694.81;6220841;28;20388;-66
2022/07/29 13:30:50;;;;;;;;;;;;;;;27.31;34.94;96682.03;6223104;28;19926;-65
2022/07/29 13:33:51;;;;;;;;;;;;;;;26.50;36.15;96684.03;6225569;28;19976;-65
2022/07/29 13:36:57;;;;;;;;;;;;;;;26.07;36.76;96687.00;6225871;28;20007;-65
2022/07/29 13:40:03;;;;;;;;;;;;;;;26.13;36.95;96691.63;6225440;28;19925;-66
2022/07/29 13:43:11;;;;;;;;;;;;;;;25.98;37.34;96684.47;6225113;28;19925;-66
2022/07/29 13:46:12;;;;;;;;;;;;;;;26.17;37.06;96685.59;6224901;28;20307;-66
2022/07/29 13:49:16;;;;;;;;;;;;;;;26.31;36.47;96675.69;6224994;28;19932;-65
2022/07/29 13:52:19;;;;;;;;;;;;;;;26.32;36.35;96677.34;6224882;28;19925;-65
2022/07/29 13:55:23;;;;;;;;;;;;;;;26.31;36.97;96689.16;6225034;28;19926;-65
2022/07/29 13:58:26;;;;;;;;;;;;;;;26.39;36.60;96680.91;6225097;28;19925;-65
2022/07/29 14:01:32;;;;;;;;;;;;;;;26.48;36.41;96681.53;6224827;28;19929;-66
2022/07/29 14:04:36;;;;;;;;;;;;;;;26.35;36.67;96690.41;6225128;28;20310;-65
2022/07/29 14:07:42;;;;;;;;;;;;;;;26.04;36.94;96685.53;6224831;28;19925;-65
2022/07/29 14:10:45;;;;;;;;;;;;;;;25.75;37.87;96694.72;6224450;28;19926;-65
2022/07/29 14:13:51;;;;;;;;;;;;;;;25.42;38.34;96695.38;6224544;28;20380;-65
2022/07/29 14:16:54;;;;;;;;;;;;;;;25.02;39.01;96700.41;6224235;28;19932;-66
2022/07/29 14:19:55;;;;;;;;;;;;;;;24.78;39.56;96700.81;6224252;28;19926;-65
2022/07/29 14:22:58;;;;;;;;;;;;;;;24.65;39.83;96705.03;6224347;28;19929;-66
2022/07/29 14:25:59;;;;;;;;;;;;;;;24.62;39.76;96700.03;6224545;28;20009;-66
2022/07/29 14:29:03;;;;;;;;;;;;;;;24.53;39.78;96695.81;6224195;28;19925;-66
2022/07/29 14:32:07;;;;;;;;;;;;;;;24.39;40.13;96704.75;6224388;28;20000;-65
2022/07/29 14:35:09;;;;;;;;;;;;;;;24.37;40.04;96701.41;6223575;28;20072;-66
2022/07/29 14:38:13;;;;;;;;;;;;;;;24.22;40.25;96697.94;6224169;28;19925;-66
2022/07/29 14:41:14;;;;;;;;;;;;;;;24.20;40.43;96696.28;6223303;28;19921;-65
2022/07/29 14:44:15;;;;;;;;;;;;;;;24.18;40.39;96694.81;6223672;28;20331;-65
2022/07/29 14:47:16;;;;;;;;;;;;;;;24.06;40.67;96701.66;6223818;28;19960;-65
2022/07/29 14:50:19;;;;;;;;;;;;;;;23.99;40.48;96696.22;6223874;28;20399;-65
2022/07/29 14:53:23;;;;;;;;;;;;;;;24.10;40.56;96706.50;6223222;28;19926;-66
2022/07/29 14:56:24;;;;;;;;;;;;;;;24.19;40.53;96702.66;6221604;28;19932;-66
2022/07/29 14:59:29;;;;;;;;;;;;;;;24.13;40.60;96702.59;6223462;28;19921;-65
2022/07/29 15:02:36;;;;;;;;;;;;;;;24.10;40.83;96701.13;6223508;28;20394;-66
2022/07/29 15:05:41;;;;;;;;;;;;;;;23.94;40.69;96695.94;6223338;28;19922;-64
2022/07/29 15:08:48;;;;;;;;;;;;;;;23.80;41.00;96694.94;6223401;28;19932;-65
2022/07/29 15:11:53;;;;;;;;;;;;;;;23.70;41.07;96695.25;6223459;28;19930;-66
2022/07/29 15:14:58;;;;;;;;;;;;;;;23.36;41.74;96693.06;6222930;28;19925;-67
2022/07/29 15:18:01;;;;;;;;;;;;;;;23.01;42.21;96691.91;6222751;28;19929;-66
2022/07/29 15:21:02;;;;;;;;;;;;;;;22.78;42.96;96700.78;6223279;28;19925;-66
2022/07/29 15:24:03;;;;;;;;;;;;;;;22.56;43.60;96696.25;6223089;28;19936;-65
2022/07/29 15:27:05;;;;;;;;;;;;;;;22.45;43.82;96702.03;6222053;28;20059;-66
2022/07/29 15:30:07;;;;;;;;;;;;;;;22.36;43.95;96699.44;6222853;28;19932;-66
2022/07/29 15:33:10;;;;;;;;;;;;;;;22.27;44.07;96703.16;6222401;28;19926;-66
2022/07/29 15:36:12;;;;;;;;;;;;;;;22.24;44.25;96703.50;6222230;28;19926;-66
2022/07/29 15:39:15;;;;;;;;;;;;;;;22.14;44.50;96710.91;6222465;28;20406;-66
2022/07/29 15:42:16;;;;;;;;;;;;;;;22.04;44.76;96707.63;6222058;28;20020;-65
2022/07/29 15:45:19;;;;;;;;;;;;;;;21.86;45.12;96716.75;6222257;28;19949;-65
2022/07/29 15:48:22;;;;;;;;;;;;;;;21.73;45.62;96716.44;6222155;28;19925;-65
2022/07/29 15:51:26;;;;;;;;;;;;;;;21.66;45.92;96720.84;6222287;28;19929;-65
2022/07/29 15:54:28;;;;;;;;;;;;;;;21.64;46.52;96714.81;6221985;28;19925;-66
2022/07/29 15:57:34;;;;;;;;;;;;;;;21.60;46.68;96724.19;6222141;28;19925;-66
2022/07/29 16:00:35;;;;;;;;;;;;;;;21.61;47.25;96725.88;6222152;28;19925;-65
2022/07/29 16:03:36;;;;;;;;;;;;;;;21.44;47.69;96733.94;6221728;28;19947;-66
2022/07/29 16:06:45;;;;;;;;;;;;;;;21.33;48.35;96734.25;6222092;28;19929;-66
2022/07/29 16:09:49;;;;;;;;;;;;;;;21.30;48.64;96738.13;6222237;28;19925;-66
2022/07/29 16:12:50;;;;;;;;;;;;;;;21.24;49.00;96748.66;6221569;28;19931;-65